Time;durP1;ratioP1;P1;durP2;ratioP2;P2;SDS_P1;SDS_P2;PMS_P1;PMS_P2;Temp;Humidity;BMP_temperature;BMP_pressure;BME280_temperature;BME280_humidity;BME280_pressure;Samples;Min_cycle;Max_cycle;Signal;HPM_P1;HPM_P2
2021/11/18 00:00:53;;;;;;;7.05;1.55;;;16.30;68.10;;;;;;4826568;29;20125;-75
2021/11/18 00:03:19;;;;;;;6.68;2.28;;;16.30;68.10;;;;;;4826153;29;20450;-76
2021/11/18 00:05:46;;;;;;;7.25;1.88;;;16.30;68.10;;;;;;4827038;29;20050;-76
2021/11/18 00:08:12;;;;;;;5.97;1.92;;;16.30;68.10;;;;;;4827092;29;20050;-76
2021/11/18 00:10:47;;;;;;;7.70;1.77;;;16.30;68.10;;;;;;4826634;29;20064;-76
2021/11/18 00:13:16;;;;;;;9.30;2.00;;;16.30;67.90;;;;;;4826248;29;20055;-77
2021/11/18 00:15:43;;;;;;;6.50;1.80;;;16.20;68.10;;;;;;4826124;29;20057;-77
2021/11/18 00:18:13;;;;;;;4.90;1.30;;;16.20;68.30;;;;;;4826200;29;20085;-75
2021/11/18 00:20:43;;;;;;;7.15;2.08;;;16.20;68.30;;;;;;4826608;29;20054;-77
2021/11/18 00:23:09;;;;;;;6.43;1.77;;;16.20;68.20;;;;;;4810168;29;20466;-75
2021/11/18 00:25:35;;;;;;;6.90;1.63;;;16.20;68.20;;;;;;4826143;29;20077;-74
2021/11/18 00:28:02;;;;;;;7.82;1.75;;;16.20;68.20;;;;;;4795304;29;20051;-75
2021/11/18 00:30:28;;;;;;;8.45;2.20;;;16.20;68.10;;;;;;4826598;29;20096;-76
2021/11/18 00:32:54;;;;;;;7.88;2.40;;;16.20;68.90;;;;;;4810334;29;20055;-76
2021/11/18 00:35:26;;;;;;;9.10;2.00;;;16.20;68.30;;;;;;4810367;29;20051;-76
2021/11/18 00:37:53;;;;;;;10.40;1.88;;;16.20;68.30;;;;;;4826450;29;20062;-77
2021/11/18 00:40:34;;;;;;;6.70;1.60;;;16.20;68.30;;;;;;4826370;29;20051;-76
2021/11/18 00:43:00;;;;;;;8.63;2.10;;;16.20;68.30;;;;;;4826006;29;20090;-76
2021/11/18 00:45:27;;;;;;;8.98;2.65;;;16.20;68.20;;;;;;4825910;29;20058;-77
2021/11/18 00:47:54;;;;;;;5.93;2.17;;;16.20;68.20;;;;;;4810006;29;20141;-74
2021/11/18 00:50:25;;;;;;;4.70;2.22;;;16.20;68.20;;;;;;4826177;29;20150;-76
2021/11/18 00:52:51;;;;;;;7.07;1.80;;;16.20;68.30;;;;;;4826185;29;20054;-78
2021/11/18 00:55:18;;;;;;;6.97;1.92;;;16.20;68.30;;;;;;4828712;29;20378;-75
2021/11/18 00:57:44;;;;;;;8.00;2.15;;;16.20;68.20;;;;;;4829293;29;20526;-75
2021/11/18 01:00:13;;;;;;;8.18;2.20;;;16.20;68.20;;;;;;4829652;29;20155;-75
2021/11/18 01:02:39;;;;;;;10.77;2.25;;;16.20;68.10;;;;;;4829748;29;20339;-74
2021/11/18 01:05:05;;;;;;;9.18;1.85;;;16.20;68.10;;;;;;4829559;29;20050;-77
2021/11/18 01:07:31;;;;;;;9.07;2.30;;;16.20;68.10;;;;;;4829259;29;20462;-77
2021/11/18 01:09:58;;;;;;;6.85;1.90;;;16.20;68.10;;;;;;4829215;29;20451;-76
2021/11/18 01:12:23;;;;;;;7.57;1.90;;;16.20;68.10;;;;;;4829329;29;20054;-75
2021/11/18 01:14:49;;;;;;;9.40;2.10;;;16.20;68.00;;;;;;4829354;29;20046;-76
2021/11/18 01:17:15;;;;;;;5.80;1.88;;;16.30;68.10;;;;;;4829951;29;20091;-77
2021/11/18 01:19:41;;;;;;;7.25;2.15;;;16.20;68.00;;;;;;4829945;29;20380;-77
2021/11/18 01:22:07;;;;;;;8.38;2.28;;;16.20;68.00;;;;;;4829029;29;20332;-77
2021/11/18 01:24:36;;;;;;;9.75;2.47;;;16.20;68.10;;;;;;4812811;29;20403;-76
2021/11/18 01:27:02;;;;;;;7.93;2.30;;;16.20;68.00;;;;;;4812991;29;20058;-77
2021/11/18 01:29:29;;;;;;;5.35;2.08;;;16.20;68.00;;;;;;4829011;29;20122;-76
2021/11/18 01:31:55;;;;;;;7.88;2.00;;;16.20;68.00;;;;;;4829091;29;20129;-75
2021/11/18 01:34:21;;;;;;;8.18;2.10;;;16.20;68.00;;;;;;4813164;29;20085;-75
2021/11/18 01:36:47;;;;;;;7.10;2.22;;;16.20;68.00;;;;;;4828602;29;20466;-75
2021/11/18 01:39:12;;;;;;;9.80;2.30;;;16.20;68.00;;;;;;4828434;29;20082;-75
2021/11/18 01:41:39;;;;;;;6.75;1.98;;;16.20;68.00;;;;;;4829430;29;20061;-75
2021/11/18 01:44:29;;;;;;;8.68;2.30;;;16.20;68.10;;;;;;4828683;29;20050;-76
2021/11/18 01:46:56;;;;;;;9.90;3.10;;;16.20;68.10;;;;;;4812598;29;20050;-76
2021/11/18 01:49:24;;;;;;;9.55;2.30;;;16.20;68.10;;;;;;4828751;29;20137;-76
2021/11/18 01:51:53;;;;;;;7.97;1.95;;;16.20;68.10;;;;;;4829186;29;20077;-75
2021/11/18 01:54:21;;;;;;;7.80;2.30;;;16.10;68.10;;;;;;4812836;29;20117;-76
2021/11/18 01:56:48;;;;;;;8.32;2.58;;;16.20;68.10;;;;;;4813402;29;20081;-78
2021/11/18 01:59:18;;;;;;;9.05;3.13;;;16.10;68.10;;;;;;4828690;29;20474;-76
2021/11/18 02:01:47;;;;;;;8.95;2.05;;;16.10;68.10;;;;;;4827104;29;20436;-77
2021/11/18 02:04:16;;;;;;;10.68;3.03;;;16.10;68.10;;;;;;4828506;29;20547;-75
2021/11/18 02:06:45;;;;;;;9.98;2.28;;;16.10;68.10;;;;;;4828011;29;20455;-75
2021/11/18 02:09:15;;;;;;;9.52;2.40;;;16.20;68.10;;;;;;4828395;29;20058;-78
2021/11/18 02:11:46;;;;;;;9.27;2.33;;;16.10;68.00;;;;;;4828835;29;20506;-76
2021/11/18 02:14:14;;;;;;;7.72;2.60;;;16.10;68.10;;;;;;4812211;29;20057;-76
2021/11/18 02:16:42;;;;;;;10.85;2.72;;;16.10;68.00;;;;;;4813017;29;20071;-78
2021/11/18 02:19:09;;;;;;;11.20;2.63;;;16.10;68.10;;;;;;4827536;29;20069;-75
2021/11/18 02:21:37;;;;;;;7.50;2.35;;;16.10;68.10;;;;;;4828124;29;20054;-75
2021/11/18 02:24:08;;;;;;;8.38;2.20;;;16.10;68.10;;;;;;4828281;29;20050;-75
2021/11/18 02:26:34;;;;;;;10.35;2.67;;;16.10;68.10;;;;;;4811390;29;20478;-75
2021/11/18 02:29:06;;;;;;;7.72;2.20;;;16.00;68.10;;;;;;4828152;29;20054;-76
2021/11/18 02:31:39;;;;;;;9.20;2.23;;;16.00;68.10;;;;;;4811874;29;20064;-75
2021/11/18 02:34:15;;;;;;;6.88;1.73;;;16.00;68.10;;;;;;4812143;29;20129;-76
2021/11/18 02:36:41;;;;;;;10.20;2.65;;;16.00;68.20;;;;;;4828561;29;20409;-75
2021/11/18 02:39:07;;;;;;;11.00;2.50;;;16.00;68.30;;;;;;4827876;29;20058;-77
2021/11/18 02:41:36;;;;;;;9.30;2.42;;;15.90;68.30;;;;;;4827831;29;20062;-77
2021/11/18 02:44:02;;;;;;;9.20;2.92;;;16.00;68.50;;;;;;4827234;29;20390;-76
2021/11/18 02:46:28;;;;;;;8.23;2.53;;;16.00;68.40;;;;;;4828083;29;20047;-76
2021/11/18 02:48:54;;;;;;;9.68;2.67;;;16.00;68.40;;;;;;4828357;29;20431;-77
2021/11/18 02:51:21;;;;;;;9.20;2.75;;;16.00;68.40;;;;;;4827711;29;20050;-76
2021/11/18 02:53:48;;;;;;;8.93;2.60;;;16.00;68.40;;;;;;4827191;29;20355;-77
2021/11/18 02:56:15;;;;;;;12.20;2.95;;;15.90;68.40;;;;;;4828269;29;20488;-75
2021/11/18 02:58:41;;;;;;;9.48;2.17;;;16.00;68.40;;;;;;4827221;29;20466;-77
2021/11/18 03:01:23;;;;;;;10.52;3.08;;;15.90;69.00;;;;;;4828090;29;20058;-76
2021/11/18 03:03:49;;;;;;;9.07;2.80;;;15.90;68.20;;;;;;4827439;29;20050;-75
2021/11/18 03:06:16;;;;;;;12.85;3.10;;;15.90;68.30;;;;;;4811612;29;20050;-77
2021/11/18 03:08:43;;;;;;;9.27;2.47;;;15.90;68.50;;;;;;4827630;29;20073;-75
2021/11/18 03:11:10;;;;;;;7.47;2.58;;;15.90;68.50;;;;;;4827323;29;20054;-74
2021/11/18 03:13:37;;;;;;;10.23;2.55;;;15.90;68.60;;;;;;4827364;29;20058;-77
2021/11/18 03:16:04;;;;;;;10.75;2.72;;;15.90;68.50;;;;;;4810719;29;20054;-75
2021/11/18 03:18:31;;;;;;;10.60;2.92;;;15.90;69.10;;;;;;4827097;29;20340;-75
2021/11/18 03:20:59;;;;;;;9.70;2.75;;;15.90;68.50;;;;;;4827295;29;20125;-77
2021/11/18 03:23:26;;;;;;;9.50;2.55;;;15.90;68.50;;;;;;4811669;29;20050;-76
2021/11/18 03:25:52;;;;;;;8.13;2.35;;;15.90;68.40;;;;;;4810693;29;20103;-77
2021/11/18 03:28:20;;;;;;;7.03;2.45;;;15.90;68.40;;;;;;4827078;29;20131;-77
2021/11/18 03:30:47;;;;;;;11.55;2.55;;;15.90;68.40;;;;;;4827370;29;20047;-76
2021/11/18 03:33:18;;;;;;;9.52;2.47;;;15.90;68.30;;;;;;4811261;29;20054;-75
2021/11/18 03:35:44;;;;;;;8.20;2.42;;;15.90;68.30;;;;;;4827208;29;20054;-75
2021/11/18 03:38:11;;;;;;;9.48;2.53;;;15.90;68.30;;;;;;4826641;29;20054;-75
2021/11/18 03:40:37;;;;;;;9.30;2.80;;;15.90;68.30;;;;;;4810882;29;20523;-76
2021/11/18 03:43:05;;;;;;;9.10;2.67;;;16.00;68.40;;;;;;4825990;29;20061;-77
2021/11/18 03:45:32;;;;;;;10.15;3.10;;;15.90;68.30;;;;;;4826782;29;20127;-74
2021/11/18 03:47:59;;;;;;;11.00;2.83;;;15.90;68.30;;;;;;4827117;29;20065;-75
2021/11/18 03:50:27;;;;;;;9.20;2.60;;;15.90;68.90;;;;;;4826987;29;20065;-76
2021/11/18 03:52:53;;;;;;;8.40;2.65;;;15.90;69.00;;;;;;4827138;29;20039;-76
2021/11/18 03:55:19;;;;;;;9.73;2.63;;;15.90;68.50;;;;;;4827096;29;20436;-78
2021/11/18 03:57:46;;;;;;;9.88;2.50;;;15.90;68.40;;;;;;4827015;29;20047;-74
2021/11/18 04:00:24;;;;;;;9.02;2.25;;;15.90;68.40;;;;;;4826677;29;20129;-77
2021/11/18 04:02:50;;;;;;;10.48;3.08;;;15.90;68.40;;;;;;4826650;29;20054;-75
2021/11/18 04:05:16;;;;;;;8.82;2.53;;;15.90;68.40;;;;;;4826473;29;20054;-77
2021/11/18 04:07:43;;;;;;;8.50;3.10;;;15.90;68.40;;;;;;4826599;29;20055;-76
2021/11/18 04:10:12;;;;;;;9.80;3.22;;;15.90;68.50;;;;;;4810595;29;20132;-77
2021/11/18 04:12:39;;;;;;;10.23;3.42;;;15.90;68.50;;;;;;4810575;29;20058;-75
2021/11/18 04:15:07;;;;;;;8.82;2.33;;;15.80;68.50;;;;;;4826481;29;20181;-75
2021/11/18 04:17:33;;;;;;;8.73;2.75;;;15.90;68.50;;;;;;4810550;29;20479;-75
2021/11/18 04:19:58;;;;;;;7.35;2.42;;;15.90;68.50;;;;;;4827049;29;20125;-76
2021/11/18 04:22:24;;;;;;;9.30;2.28;;;15.90;68.50;;;;;;4826572;29;20061;-75
2021/11/18 04:24:50;;;;;;;10.95;2.65;;;15.90;68.40;;;;;;4826622;29;20370;-76
2021/11/18 04:27:16;;;;;;;8.23;2.72;;;15.90;68.30;;;;;;4826293;29;20463;-76
2021/11/18 04:29:42;;;;;;;9.07;2.72;;;15.90;68.40;;;;;;4826153;29;20054;-78
2021/11/18 04:32:17;;;;;;;8.80;2.75;;;15.90;68.40;;;;;;4826509;29;20129;-75
2021/11/18 04:34:43;;;;;;;8.15;2.63;;;15.90;68.40;;;;;;4825796;29;20086;-76
2021/11/18 04:37:09;;;;;;;9.52;2.63;;;15.90;68.30;;;;;;4826319;29;20141;-75
2021/11/18 04:39:36;;;;;;;7.70;3.13;;;15.80;68.40;;;;;;4826203;29;20137;-75
2021/11/18 04:42:03;;;;;;;9.43;2.55;;;15.80;68.40;;;;;;4826288;29;20058;-75
2021/11/18 04:44:29;;;;;;;11.27;2.95;;;15.80;68.40;;;;;;4809732;29;20065;-76
2021/11/18 04:46:55;;;;;;;6.80;2.13;;;15.80;68.40;;;;;;4808922;29;20058;-75
2021/11/18 04:49:21;;;;;;;9.48;2.80;;;15.90;68.40;;;;;;4826421;29;20059;-74
2021/11/18 04:51:47;;;;;;;7.00;2.30;;;15.80;68.40;;;;;;4810411;29;20046;-77
2021/11/18 04:54:13;;;;;;;8.88;2.75;;;15.80;68.10;;;;;;4809862;29;20058;-75
2021/11/18 04:56:40;;;;;;;12.55;3.20;;;15.80;68.00;;;;;;4826143;29;20050;-75
2021/11/18 04:59:07;;;;;;;10.30;2.70;;;15.80;67.60;;;;;;4810060;29;20054;-76
2021/11/18 05:01:34;;;;;;;17.45;3.17;;;15.90;67.50;;;;;;4809634;29;20125;-71
2021/11/18 05:04:01;;;;;;;14.38;3.45;;;15.90;67.20;;;;;;4809322;29;20058;-77
2021/11/18 05:06:27;;;;;;;15.18;3.97;;;15.90;67.00;;;;;;4826254;29;20339;-75
2021/11/18 05:08:53;;;;;;;13.57;3.60;;;15.90;66.90;;;;;;4810131;29;20061;-73
2021/11/18 05:11:19;;;;;;;14.85;4.35;;;15.90;66.80;;;;;;4825823;29;20050;-74
2021/11/18 05:13:44;;;;;;;15.98;3.28;;;16.00;66.90;;;;;;4825928;29;20366;-75
2021/11/18 05:16:13;;;;;;;15.48;3.67;;;16.00;66.90;;;;;;4825374;29;20054;-75
2021/11/18 05:18:39;;;;;;;14.55;3.83;;;16.20;67.20;;;;;;4825620;29;20454;-75
2021/11/18 05:21:06;;;;;;;15.60;3.55;;;16.40;67.00;;;;;;4825930;29;20067;-81
2021/11/18 05:23:32;;;;;;;12.38;3.05;;;16.60;66.90;;;;;;4794724;29;20051;-78
2021/11/18 05:25:59;;;;;;;15.20;3.22;;;16.80;66.60;;;;;;4809626;29;20463;-73
2021/11/18 05:28:26;;;;;;;11.77;2.38;;;17.00;66.20;;;;;;4809773;29;20554;-74
2021/11/18 05:30:52;;;;;;;13.98;3.65;;;17.10;66.10;;;;;;4825696;29;20085;-78
2021/11/18 05:33:20;;;;;;;11.93;2.70;;;17.20;65.70;;;;;;4810258;29;20050;-79
2021/11/18 05:35:47;;;;;;;9.82;2.50;;;17.20;65.60;;;;;;4825470;29;20051;-76
2021/11/18 05:38:13;;;;;;;12.13;2.78;;;17.30;65.70;;;;;;4826312;29;20076;-73
2021/11/18 05:40:41;;;;;;;10.55;2.97;;;17.30;65.70;;;;;;4812051;29;20065;-74
2021/11/18 05:43:07;;;;;;;11.00;2.85;;;17.30;65.40;;;;;;4828960;29;20054;-75
2021/11/18 05:45:34;;;;;;;11.10;2.80;;;17.40;65.80;;;;;;4812935;29;20058;-75
2021/11/18 05:48:01;;;;;;;12.25;3.33;;;17.40;66.20;;;;;;4828634;29;20126;-74
2021/11/18 05:50:28;;;;;;;12.45;2.95;;;17.40;66.00;;;;;;4828816;29;20095;-74
2021/11/18 05:52:54;;;;;;;12.48;2.92;;;17.40;66.20;;;;;;4828571;29;20110;-73
2021/11/18 05:55:23;;;;;;;10.07;2.45;;;17.50;66.30;;;;;;4828682;29;20486;-73
2021/11/18 05:57:48;;;;;;;8.68;2.38;;;17.50;66.40;;;;;;4828581;29;20046;-74
2021/11/18 06:00:19;;;;;;;10.18;2.50;;;17.60;66.20;;;;;;4828368;29;20461;-75
2021/11/18 06:02:45;;;;;;;13.55;2.60;;;17.60;66.10;;;;;;4828366;29;20046;-75
2021/11/18 06:05:12;;;;;;;13.55;2.88;;;17.70;66.00;;;;;;4812643;29;20382;-79
2021/11/18 06:07:38;;;;;;;15.25;3.30;;;17.80;66.00;;;;;;4812616;29;20043;-78
2021/11/18 06:10:06;;;;;;;17.95;3.28;;;17.90;66.00;;;;;;4828598;29;20075;-77
2021/11/18 06:12:31;;;;;;;10.25;2.63;;;17.90;66.00;;;;;;4828148;29;20110;-77
2021/11/18 06:14:57;;;;;;;11.35;2.58;;;17.90;66.10;;;;;;4828442;29;20421;-75
2021/11/18 06:17:23;;;;;;;21.25;3.05;;;17.90;66.40;;;;;;4828407;29;20046;-76
2021/11/18 06:19:49;;;;;;;12.50;2.53;;;17.90;66.30;;;;;;4828559;29;20073;-74
2021/11/18 06:22:17;;;;;;;11.20;2.88;;;17.90;66.30;;;;;;4828209;29;20126;-77
2021/11/18 06:24:43;;;;;;;14.77;3.58;;;17.90;66.30;;;;;;4812037;29;20133;-75
2021/11/18 06:27:09;;;;;;;10.98;2.45;;;17.90;66.40;;;;;;4812811;29;20058;-73
2021/11/18 06:29:35;;;;;;;12.85;2.90;;;17.80;66.30;;;;;;4827924;29;20069;-72
2021/11/18 06:32:05;;;;;;;21.42;2.63;;;17.80;66.10;;;;;;4828046;29;20065;-75
2021/11/18 06:34:31;;;;;;;13.50;2.92;;;17.70;66.90;;;;;;4828170;29;20050;-74
2021/11/18 06:36:57;;;;;;;16.98;3.08;;;17.70;66.90;;;;;;4828628;29;20354;-73
2021/11/18 06:39:23;;;;;;;15.18;3.10;;;17.70;67.00;;;;;;4828149;29;20065;-73
2021/11/18 06:41:49;;;;;;;13.55;2.50;;;17.70;66.80;;;;;;4811884;29;20455;-73
2021/11/18 06:44:16;;;;;;;13.80;3.08;;;17.60;67.40;;;;;;4827611;29;20062;-73
2021/11/18 06:46:43;;;;;;;13.48;2.90;;;17.60;67.80;;;;;;4827594;29;20058;-74
2021/11/18 06:49:10;;;;;;;17.73;3.45;;;17.70;67.70;;;;;;4804779;29;20055;-74
2021/11/18 06:51:40;;;;;;;13.82;2.85;;;17.70;68.00;;;;;;4820994;29;20117;-75
2021/11/18 06:54:07;;;;;;;20.38;3.33;;;17.70;68.10;;;;;;4823321;29;20061;-78
2021/11/18 06:56:33;;;;;;;12.25;3.17;;;17.70;68.10;;;;;;4821171;29;20051;-75
2021/11/18 06:59:00;;;;;;;15.63;3.45;;;17.70;68.30;;;;;;4826532;29;20118;-75
2021/11/18 07:01:26;;;;;;;15.88;3.38;;;17.70;68.60;;;;;;4811262;29;20470;-80
2021/11/18 07:03:52;;;;;;;17.85;3.60;;;17.70;68.60;;;;;;4827348;29;20051;-81
2021/11/18 07:06:21;;;;;;;16.83;2.90;;;17.80;68.70;;;;;;4826999;29;20042;-75
2021/11/18 07:08:47;;;;;;;18.02;3.00;;;17.80;68.60;;;;;;4827151;29;20046;-76
2021/11/18 07:11:15;;;;;;;16.67;3.10;;;17.90;68.70;;;;;;4810978;29;20351;-75
2021/11/18 07:13:41;;;;;;;19.25;3.35;;;17.80;68.70;;;;;;4825268;29;20062;-76
2021/11/18 07:16:12;;;;;;;23.95;3.85;;;17.80;68.60;;;;;;4811587;29;20046;-77
2021/11/18 07:18:37;;;;;;;18.13;3.13;;;17.80;69.20;;;;;;4811926;29;20054;-76
2021/11/18 07:21:03;;;;;;;12.48;3.30;;;17.80;68.80;;;;;;4827430;29;20118;-77
2021/11/18 07:23:30;;;;;;;13.70;2.58;;;17.90;68.60;;;;;;4824165;29;20110;-74
2021/11/18 07:25:58;;;;;;;14.15;3.20;;;17.90;68.20;;;;;;4824066;29;20097;-75
2021/11/18 07:28:25;;;;;;;21.33;3.42;;;17.80;67.80;;;;;;4810994;29;20054;-74
2021/11/18 07:30:53;;;;;;;16.50;3.03;;;17.80;68.00;;;;;;4810859;29;20114;-76
2021/11/18 07:33:21;;;;;;;15.60;3.33;;;17.70;68.00;;;;;;4826910;29;20046;-77
2021/11/18 07:35:47;;;;;;;22.20;3.20;;;17.70;68.70;;;;;;4827104;29;20050;-77
2021/11/18 07:38:16;;;;;;;24.40;3.30;;;17.80;68.50;;;;;;4826610;29;20050;-77
2021/11/18 07:40:44;;;;;;;22.02;3.70;;;17.80;68.50;;;;;;4796036;29;20066;-74
2021/11/18 07:43:12;;;;;;;15.68;3.05;;;17.80;68.50;;;;;;4826473;29;20057;-74
2021/11/18 07:45:37;;;;;;;15.02;3.25;;;17.80;68.30;;;;;;4827669;29;20054;-75
2021/11/18 07:48:03;;;;;;;17.77;3.53;;;17.80;67.60;;;;;;4810848;29;20123;-76
2021/11/18 07:50:30;;;;;;;15.48;3.28;;;17.80;67.40;;;;;;4810838;29;20423;-72
2021/11/18 07:52:58;;;;;;;18.52;3.17;;;17.80;66.70;;;;;;4826713;29;20054;-75
2021/11/18 07:55:24;;;;;;;13.93;2.83;;;17.80;67.20;;;;;;4810260;29;20133;-76
2021/11/18 07:57:50;;;;;;;14.70;2.92;;;17.90;67.30;;;;;;4826896;29;20171;-74
2021/11/18 08:00:20;;;;;;;17.40;3.25;;;17.90;67.40;;;;;;4810685;29;20050;-75
2021/11/18 08:02:46;;;;;;;13.27;2.58;;;18.00;67.40;;;;;;4825917;29;20060;-73
2021/11/18 08:05:14;;;;;;;14.05;2.60;;;18.00;67.20;;;;;;4810257;29;20051;-72
2021/11/18 08:07:43;;;;;;;29.63;3.78;;;17.60;67.10;;;;;;4810222;29;20085;-77
2021/11/18 08:10:10;;;;;;;12.40;2.75;;;17.70;67.40;;;;;;4810416;29;20054;-74
2021/11/18 08:12:37;;;;;;;19.70;3.88;;;17.80;67.30;;;;;;4826046;29;20442;-73
2021/11/18 08:15:04;;;;;;;22.60;4.00;;;17.80;67.10;;;;;;4826510;29;20050;-73
2021/11/18 08:17:30;;;;;;;16.02;2.78;;;17.90;67.10;;;;;;4826497;29;20193;-74
2021/11/18 08:19:55;;;;;;;17.67;3.47;;;17.90;67.10;;;;;;4826505;29;20170;-73
2021/11/18 08:22:21;;;;;;;19.17;3.40;;;18.00;66.90;;;;;;4826282;29;20054;-73
2021/11/18 08:24:47;;;;;;;13.27;2.67;;;18.10;66.60;;;;;;4826273;29;20050;-73
2021/11/18 08:27:13;;;;;;;17.10;2.58;;;18.10;66.10;;;;;;4826671;29;20218;-73
2021/11/18 08:29:39;;;;;;;19.50;2.40;;;18.10;65.80;;;;;;4827059;29;20046;-74
2021/11/18 08:32:05;;;;;;;12.63;2.92;;;18.10;65.80;;;;;;4826208;29;20493;-73
2021/11/18 08:34:32;;;;;;;17.92;3.70;;;18.10;65.80;;;;;;4810216;29;20034;-73
2021/11/18 08:36:58;;;;;;;14.10;2.75;;;18.20;65.90;;;;;;4795353;29;20070;-73
2021/11/18 08:39:25;;;;;;;15.13;2.25;;;18.20;65.80;;;;;;4826343;29;20094;-73
2021/11/18 08:41:55;;;;;;;18.75;3.05;;;18.20;65.50;;;;;;4810031;29;20050;-75
2021/11/18 08:44:21;;;;;;;11.68;2.60;;;18.20;65.30;;;;;;4826063;29;20085;-74
2021/11/18 08:46:48;;;;;;;11.45;2.63;;;18.30;65.20;;;;;;4818610;29;20392;-72
2021/11/18 08:49:14;;;;;;;14.98;2.78;;;18.30;65.10;;;;;;4826095;29;20054;-73
2021/11/18 08:51:41;;;;;;;12.48;2.85;;;18.30;64.80;;;;;;4809395;29;20069;-73
2021/11/18 08:54:11;;;;;;;8.40;2.20;;;18.30;64.70;;;;;;4804730;29;20050;-72
2021/11/18 08:56:37;;;;;;;16.52;2.78;;;18.30;64.40;;;;;;4826250;29;20050;-75
2021/11/18 08:59:04;;;;;;;15.55;2.50;;;18.30;64.20;;;;;;4810046;29;20527;-76
2021/11/18 09:01:35;;;;;;;11.65;3.13;;;18.30;64.40;;;;;;4825619;29;20494;-75
2021/11/18 09:04:04;;;;;;;12.70;2.85;;;18.20;64.50;;;;;;4809453;29;20054;-75
2021/11/18 09:06:30;;;;;;;9.85;2.38;;;18.10;64.60;;;;;;4825853;29;20358;-74
2021/11/18 09:08:56;;;;;;;13.23;2.78;;;18.10;64.70;;;;;;4809842;29;20129;-74
2021/11/18 09:11:24;;;;;;;6.63;2.03;;;18.10;64.90;;;;;;4826196;29;20054;-73
2021/11/18 09:13:51;;;;;;;18.50;2.90;;;18.00;64.90;;;;;;4809279;29;20138;-75
2021/11/18 09:16:18;;;;;;;8.30;2.40;;;18.00;65.00;;;;;;4812566;29;20074;-76
2021/11/18 09:18:44;;;;;;;10.73;2.20;;;18.00;65.10;;;;;;4829252;29;20047;-75
2021/11/18 09:21:13;;;;;;;11.20;2.33;;;17.90;65.20;;;;;;4813335;29;20478;-75
2021/11/18 09:23:45;;;;;;;8.43;2.67;;;17.90;65.30;;;;;;4828797;29;20367;-73
2021/11/18 09:26:13;;;;;;;8.82;2.47;;;17.80;65.30;;;;;;4828314;29;20058;-74
2021/11/18 09:28:39;;;;;;;8.43;2.08;;;17.90;65.40;;;;;;4829561;29;20130;-74
2021/11/18 09:31:07;;;;;;;12.38;3.00;;;17.80;65.50;;;;;;4813611;29;20167;-74
2021/11/18 09:33:34;;;;;;;8.55;2.20;;;17.80;65.50;;;;;;4828712;29;20100;-77
2021/11/18 09:36:03;;;;;;;9.68;2.60;;;17.80;65.60;;;;;;4829006;29;20091;-76
2021/11/18 09:38:31;;;;;;;6.50;2.05;;;17.80;65.60;;;;;;4829637;29;20087;-73
2021/11/18 09:41:27;;;;;;;9.27;1.65;;;17.80;65.50;;;;;;4828835;29;20139;-73
2021/11/18 09:44:18;;;;;;;8.52;2.28;;;17.80;65.30;;;;;;4828079;29;20069;-74
2021/11/18 09:47:23;;;;;;;11.63;2.40;;;17.90;65.40;;;;;;4812500;29;20083;-75
2021/11/18 09:50:30;;;;;;;17.95;3.10;;;17.80;65.20;;;;;;4821128;29;20058;-75
2021/11/18 09:53:08;;;;;;;9.05;2.28;;;17.60;65.60;;;;;;4828483;29;20050;-75
2021/11/18 09:55:36;;;;;;;9.18;2.55;;;17.60;65.60;;;;;;4828101;29;20087;-76
2021/11/18 09:58:21;;;;;;;10.20;2.33;;;17.60;65.60;;;;;;4812509;29;20081;-76
2021/11/18 10:01:00;;;;;;;8.23;2.05;;;17.60;66.20;;;;;;4828531;29;20050;-74
2021/11/18 10:03:53;;;;;;;10.57;4.53;;;17.60;66.20;;;;;;4828157;29;20054;-76
2021/11/18 10:06:22;;;;;;;11.02;2.70;;;17.60;67.10;;;;;;4828474;29;20361;-76
2021/11/18 10:08:53;;;;;;;9.13;2.50;;;17.60;67.10;;;;;;4811943;29;20050;-76
2021/11/18 10:11:22;;;;;;;8.13;2.42;;;17.60;66.60;;;;;;4812410;29;20064;-76
2021/11/18 10:14:14;;;;;;;7.85;2.67;;;17.60;66.60;;;;;;4811708;29;20066;-75
2021/11/18 10:17:00;;;;;;;8.82;2.70;;;17.60;66.40;;;;;;4827995;29;20054;-76
2021/11/18 10:19:31;;;;;;;9.75;2.85;;;17.50;66.60;;;;;;4826671;29;20065;-73
2021/11/18 10:21:59;;;;;;;11.60;2.90;;;17.50;66.90;;;;;;4812171;29;20062;-74
2021/11/18 10:24:32;;;;;;;12.90;3.03;;;17.50;67.20;;;;;;4808918;29;20062;-73
2021/11/18 10:27:10;;;;;;;11.00;3.30;;;17.50;67.00;;;;;;4809681;29;20371;-73
2021/11/18 10:29:53;;;;;;;8.25;2.38;;;17.50;66.80;;;;;;4794030;29;20093;-73
2021/11/18 10:32:19;;;;;;;11.38;2.53;;;17.40;67.00;;;;;;4812398;29;21517;-74
2021/11/18 10:35:18;;;;;;;9.95;2.47;;;17.40;67.10;;;;;;4828056;29;20065;-74
2021/11/18 10:37:48;;;;;;;10.13;2.58;;;17.40;66.70;;;;;;4828268;29;20396;-73
2021/11/18 10:40:30;;;;;;;8.45;3.00;;;17.40;66.80;;;;;;4828136;29;20058;-72
2021/11/18 10:43:02;;;;;;;11.48;2.50;;;17.40;66.90;;;;;;4827865;29;20050;-74
2021/11/18 10:45:28;;;;;;;13.30;3.03;;;17.40;64.30;;;;;;4811597;29;20050;-74
2021/11/18 10:48:00;;;;;;;9.20;2.50;;;17.20;66.90;;;;;;4827132;29;20172;-73
2021/11/18 10:50:37;;;;;;;12.80;3.00;;;17.40;67.10;;;;;;4827599;29;20054;-73
2021/11/18 10:53:07;;;;;;;10.60;2.67;;;17.50;66.90;;;;;;4811524;29;20493;-73
2021/11/18 10:55:39;;;;;;;12.23;2.38;;;17.60;66.70;;;;;;4811427;29;20463;-73
2021/11/18 10:58:10;;;;;;;13.20;2.65;;;17.60;66.70;;;;;;4827394;29;20510;-73
2021/11/18 11:00:41;;;;;;;12.95;2.88;;;17.60;66.70;;;;;;4827084;29;20467;-73
2021/11/18 11:03:35;;;;;;;12.10;2.70;;;17.70;66.70;;;;;;4826798;29;20046;-74
2021/11/18 11:06:16;;;;;;;17.17;3.03;;;17.70;66.70;;;;;;4827346;29;20058;-73
2021/11/18 11:08:49;;;;;;;15.68;2.72;;;17.70;66.70;;;;;;4827111;29;20574;-74
2021/11/18 11:11:55;;;;;;;17.00;2.63;;;17.70;66.70;;;;;;4827293;29;20058;-74
2021/11/18 11:14:32;;;;;;;12.98;3.00;;;17.70;66.80;;;;;;4826393;29;20046;-74
2021/11/18 11:17:19;;;;;;;13.98;2.28;;;17.70;66.50;;;;;;4827349;29;20055;-72
2021/11/18 11:19:56;;;;;;;10.77;2.55;;;17.60;66.90;;;;;;4827583;29;20370;-73
2021/11/18 11:22:25;;;;;;;16.10;3.13;;;17.60;66.60;;;;;;4826902;29;20371;-73
2021/11/18 11:24:56;;;;;;;9.95;2.75;;;17.60;66.90;;;;;;4827236;29;20054;-73
2021/11/18 11:27:22;;;;;;;9.48;2.33;;;17.50;66.80;;;;;;4827410;29;20363;-73
2021/11/18 11:29:57;;;;;;;12.48;2.50;;;17.50;67.00;;;;;;4827236;29;20082;-72
2021/11/18 11:32:37;;;;;;;7.43;2.22;;;17.50;67.00;;;;;;4826978;29;20069;-74
2021/11/18 11:35:24;;;;;;;12.30;2.67;;;17.50;66.90;;;;;;4827146;29;20050;-73
2021/11/18 11:38:28;;;;;;;10.93;2.13;;;17.40;67.00;;;;;;4826101;29;20141;-74
2021/11/18 11:41:20;;;;;;;10.38;2.53;;;17.40;67.10;;;;;;4788912;30;20494;-74
2021/11/18 11:43:51;;;;;;;13.05;3.42;;;17.40;67.20;;;;;;4786130;29;20059;-73
2021/11/18 11:46:36;;;;;;;16.23;3.60;;;17.40;67.10;;;;;;4803923;29;20098;-73
2021/11/18 11:49:12;;;;;;;12.55;3.15;;;17.40;66.70;;;;;;4810395;29;20420;-74
2021/11/18 11:52:16;;;;;;;11.60;2.95;;;17.40;66.10;;;;;;4817457;29;20046;-73
2021/11/18 11:55:04;;;;;;;11.57;2.90;;;17.40;65.90;;;;;;4826496;29;20101;-74
2021/11/18 11:57:45;;;;;;;12.98;3.10;;;17.40;65.90;;;;;;4826241;29;20121;-73
2021/11/18 12:00:27;;;;;;;11.55;2.72;;;17.50;65.90;;;;;;4826768;29;20060;-74
2021/11/18 12:03:12;;;;;;;10.23;2.33;;;17.50;65.80;;;;;;4805878;29;20137;-72
2021/11/18 12:06:10;;;;;;;12.25;2.55;;;17.60;65.90;;;;;;4826436;29;20081;-73
2021/11/18 12:08:43;;;;;;;9.70;3.38;;;17.60;65.90;;;;;;4816513;29;20058;-73
2021/11/18 12:11:46;;;;;;;13.52;3.03;;;17.70;65.90;;;;;;4827286;29;20088;-73
2021/11/18 12:14:33;;;;;;;7.05;2.00;;;17.80;65.90;;;;;;4825361;29;20050;-73
2021/11/18 12:17:10;;;;;;;12.32;2.22;;;17.90;65.80;;;;;;4826398;29;20100;-72
2021/11/18 12:20:05;;;;;;;13.13;2.40;;;17.90;65.80;;;;;;4826599;29;20150;-73
2021/11/18 12:22:39;;;;;;;9.27;2.70;;;18.00;65.80;;;;;;4823958;29;20086;-72
2021/11/18 12:25:20;;;;;;;9.90;2.88;;;18.00;65.80;;;;;;4826283;29;20062;-73
2021/11/18 12:27:49;;;;;;;9.88;2.75;;;18.10;65.80;;;;;;4826420;29;20080;-73
2021/11/18 12:30:23;;;;;;;9.45;2.10;;;18.10;65.70;;;;;;4810606;29;20068;-73
2021/11/18 12:33:32;;;;;;;10.50;2.28;;;18.10;65.70;;;;;;4825777;29;20043;-73
2021/11/18 12:36:10;;;;;;;10.20;3.05;;;18.20;65.60;;;;;;4826302;29;20058;-73
2021/11/18 12:38:58;;;;;;;10.30;2.42;;;18.20;65.80;;;;;;4810242;29;20086;-72
2021/11/18 12:41:39;;;;;;;10.43;2.60;;;18.20;65.70;;;;;;4826116;29;20159;-72
2021/11/18 12:44:19;;;;;;;9.90;2.67;;;18.20;65.80;;;;;;4825421;29;20046;-72
2021/11/18 12:47:10;;;;;;;7.13;2.33;;;18.20;65.70;;;;;;4826014;29;20127;-73
2021/11/18 12:49:47;;;;;;;10.38;2.20;;;18.20;65.90;;;;;;4811611;29;20092;-73
2021/11/18 12:52:24;;;;;;;8.15;2.20;;;18.20;65.90;;;;;;4829564;29;20055;-72
2021/11/18 12:55:15;;;;;;;7.82;2.70;;;18.20;66.00;;;;;;4819660;29;20114;-72
2021/11/18 12:58:17;;;;;;;7.22;2.63;;;18.20;66.00;;;;;;4847663;29;20393;-72